Time;durP1;ratioP1;P1;durP2;ratioP2;P2;SDS_P1;SDS_P2;PMS_P1;PMS_P2;Temp;Humidity;BMP_temperature;BMP_pressure;BME280_temperature;BME280_humidity;BME280_pressure;Samples;Min_cycle;Max_cycle;Signal;HPM_P1;HPM_P2
2022/05/31 00:00:08;;;;;;;974.47;842.45;;;7.10;81.00;;;;;;5028762;28;20037;-69
2022/05/31 00:02:34;;;;;;;776.60;692.30;;;7.10;81.00;;;;;;5028322;28;20763;-69
2022/05/31 00:05:00;;;;;;;1016.50;853.73;;;7.10;81.00;;;;;;5027463;28;20045;-69
2022/05/31 00:07:26;;;;;;;1027.00;920.40;;;7.10;81.10;;;;;;5026415;28;20045;-69
2022/05/31 00:09:51;;;;;;;913.47;816.33;;;7.10;81.10;;;;;;5028049;28;20648;-69
2022/05/31 00:12:18;;;;;;;951.07;847.33;;;7.00;81.00;;;;;;5012170;28;20091;-69
2022/05/31 00:14:44;;;;;;;944.08;835.92;;;7.00;81.30;;;;;;5011397;28;20549;-69
2022/05/31 00:17:09;;;;;;;1064.47;841.35;;;7.00;81.40;;;;;;5027844;28;20151;-69
2022/05/31 00:19:35;;;;;;;1029.03;917.60;;;7.00;81.50;;;;;;5025921;28;20058;-69
2022/05/31 00:22:09;;;;;;;984.77;878.90;;;7.00;81.50;;;;;;5022244;28;20041;-69
2022/05/31 00:24:35;;;;;;;992.80;894.55;;;7.00;81.40;;;;;;5027575;28;20069;-69
2022/05/31 00:27:03;;;;;;;1018.90;911.45;;;7.00;81.40;;;;;;5011428;28;20435;-69
2022/05/31 00:29:30;;;;;;;976.28;872.45;;;7.00;81.70;;;;;;5027623;28;20048;-69
2022/05/31 00:31:55;;;;;;;1010.22;901.58;;;7.00;81.80;;;;;;5010831;28;20037;-69
2022/05/31 00:34:21;;;;;;;970.50;873.50;;;7.00;82.00;;;;;;5009510;28;20051;-69
2022/05/31 00:36:49;;;;;;;892.60;801.37;;;7.00;81.90;;;;;;5027437;28;20494;-69
2022/05/31 00:39:14;;;;;;;982.13;888.33;;;7.00;82.20;;;;;;5012003;28;20854;-69
2022/05/31 00:41:41;;;;;;;1020.93;921.10;;;7.00;82.30;;;;;;5027700;28;20041;-69
2022/05/31 00:44:09;;;;;;;944.88;854.97;;;7.00;82.40;;;;;;5026880;28;20037;-69
2022/05/31 00:46:53;;;;;;;948.42;855.88;;;7.00;82.50;;;;;;5027369;28;20352;-69
2022/05/31 00:49:28;;;;;;;968.10;870.67;;;7.00;82.60;;;;;;5027407;28;20041;-69
2022/05/31 00:51:56;;;;;;;969.03;872.63;;;7.00;82.60;;;;;;5027622;28;20045;-69
2022/05/31 00:54:26;;;;;;;953.88;858.88;;;6.90;82.50;;;;;;5007712;28;20116;-69
2022/05/31 00:56:54;;;;;;;951.83;852.97;;;7.00;82.60;;;;;;5041453;28;20060;-69
2022/05/31 00:59:24;;;;;;;964.88;863.95;;;7.00;82.70;;;;;;5010991;28;20114;-69
2022/05/31 01:01:53;;;;;;;966.83;873.25;;;7.00;82.80;;;;;;5027206;28;20516;-69
2022/05/31 01:04:25;;;;;;;924.40;828.63;;;7.00;82.80;;;;;;5026457;28;20046;-69
2022/05/31 01:06:51;;;;;;;952.83;853.17;;;7.00;82.80;;;;;;5026484;28;20037;-69
2022/05/31 01:09:16;;;;;;;984.40;880.27;;;7.00;82.80;;;;;;5024623;28;20044;-69
2022/05/31 01:11:43;;;;;;;972.67;872.33;;;7.00;82.80;;;;;;4993036;28;20560;-69
2022/05/31 01:14:11;;;;;;;1009.92;904.60;;;7.00;82.80;;;;;;5009354;28;20693;-69
2022/05/31 01:17:17;;;;;;;955.13;857.97;;;7.00;82.90;;;;;;5026895;28;20041;-70
2022/05/31 01:20:01;;;;;;;;;;;7.00;83.10;;;;;;5005667;28;20514;-69
2022/05/31 01:22:29;;;;;;;935.55;855.53;;;7.00;83.00;;;;;;5009767;28;20168;-69
2022/05/31 01:25:18;;;;;;;1021.63;924.45;;;7.00;83.20;;;;;;5010120;28;20045;-69
2022/05/31 01:27:43;;;;;;;1000.88;905.13;;;7.00;82.90;;;;;;5026647;28;20068;-69
2022/05/31 01:30:11;;;;;;;961.03;871.20;;;7.00;83.00;;;;;;5027175;28;20045;-69
2022/05/31 01:32:43;;;;;;;1048.68;946.67;;;7.00;83.00;;;;;;5026406;28;20049;-69
2022/05/31 01:35:17;;;;;;;956.83;858.50;;;7.10;83.10;;;;;;5009898;28;20076;-69
2022/05/31 01:37:53;;;;;;;1023.90;922.95;;;7.10;83.20;;;;;;5024855;28;20056;-69
2022/05/31 01:40:44;;;;;;;973.55;884.42;;;7.20;83.20;;;;;;5014322;28;20041;-69
2022/05/31 01:43:09;;;;;;;912.38;825.67;;;7.20;83.30;;;;;;5007736;28;20064;-69
2022/05/31 01:46:05;;;;;;;921.63;825.50;;;7.20;83.50;;;;;;5026623;28;20045;-69
2022/05/31 01:48:34;;;;;;;975.78;878.55;;;7.20;83.40;;;;;;5010787;28;20452;-69
2022/05/31 01:51:00;;;;;;;970.63;869.97;;;7.20;83.40;;;;;;5009636;28;20139;-69
2022/05/31 01:53:26;;;;;;;976.38;880.70;;;7.20;83.40;;;;;;5025885;28;20536;-69
2022/05/31 01:55:52;;;;;;;985.53;888.88;;;7.20;83.40;;;;;;5024673;28;20049;-69
2022/05/31 01:58:23;;;;;;;981.13;882.70;;;7.20;83.50;;;;;;5026127;28;20330;-69
2022/05/31 02:00:49;;;;;;;935.78;836.83;;;7.20;83.50;;;;;;5021277;28;20037;-69
2022/05/31 02:03:17;;;;;;;974.28;872.70;;;7.20;83.50;;;;;;5025629;28;20045;-69
2022/05/31 02:05:47;;;;;;;959.33;865.92;;;7.20;83.40;;;;;;5008779;28;20128;-69
2022/05/31 02:08:14;;;;;;;974.25;868.38;;;7.20;83.50;;;;;;5019468;28;20052;-69
2022/05/31 02:10:40;;;;;;;941.80;847.08;;;7.30;83.90;;;;;;5026145;28;20285;-69
2022/05/31 02:13:06;;;;;;;936.35;841.00;;;7.30;83.80;;;;;;5024838;28;20191;-69
2022/05/31 02:15:33;;;;;;;836.07;754.17;;;7.30;83.90;;;;;;4993387;28;20140;-69
2022/05/31 02:17:59;;;;;;;933.17;836.90;;;7.40;84.00;;;;;;4991974;28;20129;-69
2022/05/31 02:20:24;;;;;;;943.25;847.92;;;7.40;84.30;;;;;;5017094;28;20037;-69
2022/05/31 02:22:50;;;;;;;942.33;841.63;;;7.40;84.20;;;;;;5025383;28;20402;-69
2022/05/31 02:25:17;;;;;;;920.13;820.13;;;7.50;84.20;;;;;;5025628;28;20053;-69
2022/05/31 02:27:43;;;;;;;933.70;841.95;;;7.50;84.40;;;;;;4990704;28;20053;-69
2022/05/31 02:30:09;;;;;;;884.03;795.03;;;7.50;84.00;;;;;;5024924;28;20361;-69
2022/05/31 02:32:35;;;;;;;877.05;786.03;;;7.60;84.00;;;;;;5007472;28;20402;-69
2022/05/31 02:35:02;;;;;;;977.00;874.47;;;7.60;84.10;;;;;;5008506;28;20049;-69
2022/05/31 02:37:28;;;;;;;980.67;876.83;;;7.60;83.90;;;;;;5024276;28;20095;-69
2022/05/31 02:39:54;;;;;;;815.63;732.30;;;7.60;83.90;;;;;;5023556;28;20387;-69
2022/05/31 02:42:20;;;;;;;898.83;799.88;;;7.70;83.90;;;;;;5025434;28;20060;-69
2022/05/31 02:44:46;;;;;;;808.33;726.10;;;7.70;83.90;;;;;;5009133;28;20041;-69
2022/05/31 02:47:12;;;;;;;919.05;816.75;;;7.70;83.90;;;;;;5024702;28;20303;-69
2022/05/31 02:49:40;;;;;;;982.53;876.23;;;7.70;84.10;;;;;;5009317;28;20037;-69
2022/05/31 02:52:06;;;;;;;841.00;750.88;;;7.80;83.80;;;;;;5007955;28;20103;-69
2022/05/31 02:54:32;;;;;;;944.70;820.92;;;7.70;83.90;;;;;;5012102;28;20106;-69
2022/05/31 02:56:58;;;;;;;899.17;799.37;;;7.80;83.80;;;;;;5005113;28;20034;-69
2022/05/31 02:59:23;;;;;;;870.53;775.53;;;7.80;84.00;;;;;;5022252;28;20112;-69
2022/05/31 03:01:50;;;;;;;921.30;803.53;;;7.80;83.80;;;;;;5024109;28;20045;-69
2022/05/31 03:04:16;;;;;;;869.10;767.90;;;7.80;83.70;;;;;;5007599;28;20084;-69
2022/05/31 03:06:43;;;;;;;904.95;805.60;;;7.80;83.70;;;;;;5025455;28;20409;-69
2022/05/31 03:09:09;;;;;;;908.45;800.17;;;7.80;83.60;;;;;;5038959;28;20466;-69
2022/05/31 03:11:43;;;;;;;873.20;773.10;;;7.80;83.50;;;;;;5023506;28;20041;-69
2022/05/31 03:14:13;;;;;;;764.88;683.38;;;7.80;83.50;;;;;;5023800;28;20068;-69
2022/05/31 03:16:41;;;;;;;842.67;742.08;;;7.80;83.50;;;;;;5008679;28;20120;-69
2022/05/31 03:19:12;;;;;;;811.80;702.90;;;7.80;83.50;;;;;;5020243;28;20070;-69
2022/05/31 03:21:46;;;;;;;946.55;830.97;;;7.90;83.40;;;;;;5035692;28;20075;-69
2022/05/31 03:24:17;;;;;;;880.75;784.97;;;7.90;83.30;;;;;;5023379;28;20091;-69
2022/05/31 03:26:44;;;;;;;885.75;772.67;;;7.90;83.30;;;;;;5008006;28;20092;-69
2022/05/31 03:29:11;;;;;;;819.85;713.63;;;7.90;83.20;;;;;;5024592;28;20132;-69
2022/05/31 03:31:37;;;;;;;887.65;754.72;;;7.90;83.20;;;;;;5008217;28;20041;-69
2022/05/31 03:34:03;;;;;;;878.20;734.75;;;7.90;82.90;;;;;;5023222;28;20072;-69
2022/05/31 03:36:29;;;;;;;907.17;807.30;;;7.90;82.90;;;;;;5018612;28;20079;-69
2022/05/31 03:38:55;;;;;;;908.27;808.83;;;7.90;83.00;;;;;;5023722;28;20422;-69
2022/05/31 03:41:20;;;;;;;865.37;769.87;;;7.90;82.70;;;;;;5006186;28;20686;-69
2022/05/31 03:43:46;;;;;;;863.57;771.80;;;8.00;82.80;;;;;;5008027;28;20046;-69
2022/05/31 03:46:14;;;;;;;943.00;823.40;;;8.00;82.90;;;;;;4985379;28;20049;-69
2022/05/31 03:48:39;;;;;;;869.63;778.15;;;8.00;82.70;;;;;;5025327;28;20432;-69
2022/05/31 03:51:11;;;;;;;890.67;758.03;;;8.00;82.80;;;;;;5023798;28;20041;-69
2022/05/31 03:53:37;;;;;;;874.33;766.55;;;8.10;82.70;;;;;;5024042;28;20140;-69
2022/05/31 03:56:05;;;;;;;880.17;775.50;;;8.10;82.50;;;;;;5021479;28;20467;-69
2022/05/31 03:58:31;;;;;;;880.08;761.05;;;8.10;82.60;;;;;;5017821;28;20049;-69
2022/05/31 04:00:57;;;;;;;796.65;712.58;;;8.10;82.50;;;;;;5008144;28;20565;-69
2022/05/31 04:03:24;;;;;;;863.47;758.92;;;8.10;82.60;;;;;;5004878;28;20038;-69
2022/05/31 04:05:50;;;;;;;1014.97;828.78;;;8.10;82.60;;;;;;5006882;28;20256;-69
2022/05/31 04:08:16;;;;;;;861.97;746.00;;;8.10;82.60;;;;;;4991810;28;20099;-69
2022/05/31 04:10:43;;;;;;;818.97;717.25;;;8.10;82.60;;;;;;5007219;28;20091;-69
2022/05/31 04:13:10;;;;;;;891.53;775.80;;;8.20;82.70;;;;;;5021955;28;20589;-69
2022/05/31 04:15:36;;;;;;;879.63;762.42;;;8.20;82.60;;;;;;5023272;28;20045;-69
2022/05/31 04:18:03;;;;;;;950.22;790.42;;;8.20;82.60;;;;;;5024148;28;20110;-69
2022/05/31 04:20:29;;;;;;;909.75;809.15;;;8.20;82.40;;;;;;5007604;28;20041;-69
2022/05/31 04:25:41;;;;;;;941.45;833.83;;;8.20;82.40;;;;;;4990168;28;20038;-69
2022/05/31 04:28:07;;;;;;;768.30;675.90;;;8.30;82.30;;;;;;5023821;28;20041;-69
2022/05/31 04:30:32;;;;;;;899.87;743.30;;;8.30;82.30;;;;;;5024435;28;20045;-69
2022/05/31 04:32:58;;;;;;;943.73;806.77;;;8.30;82.20;;;;;;5007042;28;20064;-69
2022/05/31 04:35:23;;;;;;;796.37;685.67;;;8.40;82.40;;;;;;5007302;28;20041;-69
2022/05/31 04:37:49;;;;;;;809.77;704.83;;;8.40;82.10;;;;;;5010830;28;20041;-69
2022/05/31 04:40:15;;;;;;;903.43;743.23;;;8.50;82.10;;;;;;5026568;28;20037;-69
2022/05/31 04:42:42;;;;;;;838.00;705.17;;;8.50;82.10;;;;;;5007196;28;20038;-69
2022/05/31 04:45:08;;;;;;;797.50;647.78;;;8.60;82.10;;;;;;5023630;28;20049;-69
2022/05/31 04:47:34;;;;;;;829.47;701.63;;;8.60;81.90;;;;;;5027035;28;20474;-69
2022/05/31 04:50:00;;;;;;;865.93;692.03;;;8.70;81.90;;;;;;5027282;28;20128;-69
2022/05/31 04:52:26;;;;;;;785.47;663.47;;;8.80;81.70;;;;;;5010337;28;20060;-69
2022/05/31 04:54:52;;;;;;;879.30;672.17;;;8.80;81.80;;;;;;5026591;28;20053;-69
2022/05/31 04:57:18;;;;;;;883.78;682.30;;;8.90;81.50;;;;;;5011230;28;20463;-69
2022/05/31 04:59:45;;;;;;;891.27;729.13;;;9.00;81.40;;;;;;5027340;28;20120;-69
2022/05/31 05:02:11;;;;;;;870.30;671.85;;;9.00;81.30;;;;;;4992959;28;20440;-69
2022/05/31 05:04:37;;;;;;;881.03;678.97;;;9.10;81.30;;;;;;5010378;28;20119;-69
2022/05/31 05:07:03;;;;;;;862.93;689.63;;;9.10;81.20;;;;;;5007691;28;20037;-69
2022/05/31 05:09:29;;;;;;;861.85;717.53;;;9.20;81.10;;;;;;5027176;28;20291;-69
2022/05/31 05:11:55;;;;;;;877.00;721.60;;;9.20;80.70;;;;;;5024701;28;20033;-69
2022/05/31 05:14:22;;;;;;;883.40;672.88;;;9.20;80.70;;;;;;5010107;28;20071;-69
2022/05/31 05:16:48;;;;;;;801.97;606.58;;;9.30;80.60;;;;;;5005487;28;20033;-69
2022/05/31 05:19:14;;;;;;;709.58;593.63;;;9.30;80.60;;;;;;5005549;28;20041;-69
2022/05/31 05:21:40;;;;;;;869.33;727.40;;;9.30;80.50;;;;;;5026472;28;20037;-69
2022/05/31 05:24:06;;;;;;;947.43;725.03;;;9.30;80.40;;;;;;4993078;28;20072;-69
2022/05/31 05:26:31;;;;;;;726.55;553.80;;;9.40;80.50;;;;;;5010471;28;20104;-69
2022/05/31 05:31:58;;;;;;;847.15;689.25;;;9.40;80.40;;;;;;4961385;28;20052;-69
2022/05/31 05:34:24;;;;;;;654.40;524.40;;;9.50;80.40;;;;;;4995378;28;20049;-69
2022/05/31 05:36:49;;;;;;;701.57;570.00;;;9.50;80.10;;;;;;5025381;28;20132;-69
2022/05/31 05:39:15;;;;;;;715.23;584.97;;;9.50;80.10;;;;;;5018215;28;20041;-69
2022/05/31 05:41:41;;;;;;;761.80;615.30;;;9.50;80.00;;;;;;5027163;28;20049;-69
2022/05/31 05:44:07;;;;;;;838.63;651.40;;;9.60;79.80;;;;;;5009547;28;20136;-69
2022/05/31 05:46:33;;;;;;;785.00;640.97;;;9.60;79.80;;;;;;5027112;28;20072;-69
2022/05/31 05:48:59;;;;;;;773.30;614.57;;;9.70;79.70;;;;;;5026144;28;20033;-69
2022/05/31 05:51:28;;;;;;;755.67;580.53;;;9.70;79.60;;;;;;5026632;28;20287;-69
2022/05/31 05:53:54;;;;;;;841.00;636.72;;;9.70;79.50;;;;;;5038951;28;20130;-69
2022/05/31 05:56:21;;;;;;;890.17;699.40;;;9.70;79.40;;;;;;5026717;28;20444;-69
2022/05/31 05:58:47;;;;;;;710.65;550.00;;;9.80;79.30;;;;;;5027694;28;20482;-69
2022/05/31 06:01:45;;;;;;;777.28;592.58;;;9.80;79.20;;;;;;5026459;28;20490;-69
2022/05/31 06:04:16;;;;;;;855.53;682.15;;;9.90;79.20;;;;;;5025926;28;20089;-69
2022/05/31 06:06:44;;;;;;;833.25;607.72;;;10.00;79.10;;;;;;5025377;28;20171;-69
2022/05/31 06:09:21;;;;;;;740.78;563.85;;;10.00;79.10;;;;;;5026693;28;20055;-70
2022/05/31 06:11:58;;;;;;;861.25;630.53;;;10.10;79.10;;;;;;5018495;28;20049;-69
2022/05/31 06:14:42;;;;;;;720.63;550.88;;;10.20;79.10;;;;;;5038518;28;20050;-69
2022/05/31 06:17:18;;;;;;;747.92;533.78;;;10.30;78.90;;;;;;5026646;28;20406;-69
2022/05/31 06:19:46;;;;;;;825.88;598.47;;;10.40;78.80;;;;;;5000289;28;20121;-69
2022/05/31 06:22:12;;;;;;;786.20;550.10;;;10.50;78.80;;;;;;4995135;28;20038;-69
2022/05/31 06:24:40;;;;;;;756.83;559.73;;;10.70;78.50;;;;;;5026477;28;20064;-69
2022/05/31 06:27:06;;;;;;;722.90;589.05;;;10.70;78.10;;;;;;4992328;28;20042;-69
2022/05/31 06:29:32;;;;;;;778.53;530.47;;;10.90;77.90;;;;;;5002124;28;20045;-69
2022/05/31 06:31:58;;;;;;;791.45;554.50;;;10.90;77.80;;;;;;5009447;28;20410;-69
2022/05/31 06:34:24;;;;;;;846.50;586.17;;;11.00;77.40;;;;;;5024903;28;20116;-69
2022/05/31 06:37:04;;;;;;;735.42;517.65;;;11.10;77.10;;;;;;5009564;28;20057;-69
2022/05/31 06:39:30;;;;;;;772.20;580.38;;;11.20;76.90;;;;;;5026142;28;20127;-69
2022/05/31 06:41:55;;;;;;;814.57;599.10;;;11.30;76.60;;;;;;5009158;28;20124;-69
2022/05/31 06:44:21;;;;;;;885.43;609.80;;;11.40;76.40;;;;;;5008964;28;20037;-70
2022/05/31 06:46:47;;;;;;;782.17;548.50;;;11.50;76.30;;;;;;5009257;28;20038;-69
2022/05/31 06:49:12;;;;;;;757.30;497.70;;;11.60;76.10;;;;;;5008430;28;20098;-69
2022/05/31 06:57:06;;;;;;;809.13;541.47;;;12.10;75.50;;;;;;5024384;28;20362;-71
2022/05/31 06:59:32;;;;;;;711.63;456.07;;;12.60;75.20;;;;;;5023781;28;21026;-71
2022/05/31 07:02:04;;;;;;;780.73;445.37;;;13.30;73.90;;;;;;5005281;28;20477;-70
2022/05/31 07:04:39;;;;;;;710.23;413.20;;;13.90;73.00;;;;;;5008724;28;20052;-71
2022/05/31 07:07:05;;;;;;;840.85;462.05;;;14.40;71.40;;;;;;5008404;28;20291;-71
2022/05/31 07:09:33;;;;;;;906.97;516.97;;;14.60;70.60;;;;;;5024510;28;20508;-71
2022/05/31 07:11:58;;;;;;;887.63;515.17;;;14.80;69.80;;;;;;5024610;28;20634;-71
2022/05/31 07:14:24;;;;;;;941.60;534.37;;;14.70;68.70;;;;;;4980585;28;20373;-71
2022/05/31 07:16:50;;;;;;;980.63;575.43;;;14.50;68.30;;;;;;5004772;28;20057;-71
2022/05/31 07:19:16;;;;;;;931.20;540.57;;;14.40;68.60;;;;;;5002890;28;20498;-71
2022/05/31 07:21:43;;;;;;;1034.77;582.97;;;14.40;68.70;;;;;;4991728;28;20294;-71
2022/05/31 07:24:08;;;;;;;925.83;549.53;;;14.30;67.50;;;;;;5000337;28;20041;-71
2022/05/31 07:26:34;;;;;;;1013.33;626.33;;;14.30;67.80;;;;;;5007870;28;20656;-71
2022/05/31 07:29:00;;;;;;;1000.63;613.33;;;14.40;67.70;;;;;;5024950;28;20045;-71
2022/05/31 07:31:26;;;;;;;967.53;599.73;;;14.50;66.40;;;;;;5008594;28;20045;-71
2022/05/31 07:33:52;;;;;;;991.93;591.87;;;14.60;66.60;;;;;;5007056;28;20079;-71
2022/05/31 07:36:19;;;;;;;1042.33;612.73;;;14.80;67.00;;;;;;5023976;28;20299;-71
2022/05/31 07:38:45;;;;;;;1134.17;660.40;;;14.90;66.00;;;;;;5024985;28;20296;-71
2022/05/31 07:41:11;;;;;;;1031.80;638.43;;;15.10;65.70;;;;;;5007970;28;20546;-71
2022/05/31 07:43:37;;;;;;;1061.67;677.43;;;15.20;64.60;;;;;;4994000;28;20326;-71
2022/05/31 07:46:06;;;;;;;1044.10;666.80;;;15.30;64.10;;;;;;5002337;28;20053;-71
2022/05/31 07:48:34;;;;;;;1057.43;671.73;;;15.40;63.80;;;;;;5022141;28;20062;-71
2022/05/31 07:51:00;;;;;;;1136.57;704.63;;;15.50;63.70;;;;;;5008268;28;20644;-71
2022/05/31 07:53:26;;;;;;;1008.63;669.30;;;15.50;62.50;;;;;;4989845;28;20291;-71
2022/05/31 07:56:00;;;;;;;1028.20;683.67;;;15.60;61.80;;;;;;5001619;28;20076;-71
2022/05/31 07:58:33;;;;;;;1165.53;782.67;;;15.70;61.60;;;;;;5015562;28;20287;-71
2022/05/31 08:01:00;;;;;;;1142.63;743.87;;;15.80;61.90;;;;;;5022695;28;20079;-71
2022/05/31 08:03:25;;;;;;;1175.30;751.97;;;15.90;61.40;;;;;;5020183;28;20276;-71
2022/05/31 08:05:51;;;;;;;1094.47;719.13;;;15.90;61.10;;;;;;5003146;28;20291;-71
2022/05/31 08:08:17;;;;;;;1133.13;730.80;;;15.90;61.00;;;;;;5002999;28;20128;-71
2022/05/31 08:10:43;;;;;;;1170.43;776.10;;;16.00;60.80;;;;;;5021534;28;20326;-71
2022/05/31 08:13:09;;;;;;;1063.33;700.73;;;16.10;59.40;;;;;;5008772;28;20095;-72
2022/05/31 08:15:35;;;;;;;1092.90;783.80;;;16.20;60.40;;;;;;5006333;28;20041;-72
2022/05/31 08:18:01;;;;;;;1028.23;778.20;;;16.30;58.80;;;;;;4992129;28;20046;-72
2022/05/31 08:20:26;;;;;;;1115.77;732.43;;;16.30;58.80;;;;;;5016005;28;20284;-72
2022/05/31 08:22:52;;;;;;;1106.27;759.77;;;16.30;58.80;;;;;;5025308;28;20094;-72
2022/05/31 08:25:18;;;;;;;1062.67;737.57;;;16.50;59.80;;;;;;5007283;28;20445;-72
2022/05/31 08:27:43;;;;;;;1029.60;773.73;;;16.60;58.70;;;;;;5024636;28;20253;-72
2022/05/31 08:30:09;;;;;;;1108.63;775.77;;;16.70;57.40;;;;;;5010319;28;20057;-72
2022/05/31 08:32:36;;;;;;;1021.23;745.70;;;16.80;56.70;;;;;;5010695;28;20045;-72
2022/05/31 08:35:04;;;;;;;1111.30;813.20;;;16.90;57.00;;;;;;5025166;28;20533;-72
2022/05/31 08:37:30;;;;;;;1123.17;781.90;;;17.00;56.80;;;;;;5023896;28;20284;-72
2022/05/31 08:39:57;;;;;;;1079.77;838.83;;;17.20;56.80;;;;;;4993776;28;20809;-72
2022/05/31 08:42:43;;;;;;;1065.67;788.90;;;17.30;56.30;;;;;;5027642;28;20284;-72
2022/05/31 08:45:19;;;;;;;1030.43;802.40;;;17.40;55.70;;;;;;5027251;28;20857;-72
2022/05/31 08:47:50;;;;;;;1149.77;814.77;;;17.20;54.90;;;;;;5027327;28;20280;-70
2022/05/31 08:53:29;;;;;;;1111.63;862.57;;;17.00;56.10;;;;;;5024635;28;20284;-69
2022/05/31 08:58:49;;;;;;;1098.10;832.73;;;17.50;54.70;;;;;;5042605;28;20764;-69
2022/05/31 09:01:21;;;;;;;1076.40;806.37;;;17.70;53.50;;;;;;5024827;28;20606;-69
2022/05/31 09:03:52;;;;;;;1166.80;878.37;;;17.90;53.90;;;;;;5027006;28;20284;-69
2022/05/31 09:06:35;;;;;;;1141.27;863.13;;;18.20;53.40;;;;;;5010865;28;20621;-69
2022/05/31 09:09:08;;;;;;;1228.73;886.13;;;18.30;50.90;;;;;;5027868;28;20408;-69
2022/05/31 09:11:56;;;;;;;1205.40;929.77;;;18.50;52.50;;;;;;5028492;28;20695;-69
2022/05/31 09:14:50;;;;;;;1281.97;924.53;;;18.60;48.00;;;;;;5026677;28;20772;-69
2022/05/31 09:17:27;;;;;;;1182.37;910.90;;;18.90;50.10;;;;;;5010960;28;20808;-69
2022/05/31 09:20:36;;;;;;;1281.10;891.50;;;19.00;50.00;;;;;;5020290;28;20762;-70
2022/05/31 09:23:02;;;;;;;1203.07;877.00;;;19.10;48.90;;;;;;4988589;28;20420;-70
2022/05/31 09:25:37;;;;;;;1204.70;893.83;;;19.10;49.70;;;;;;4989045;28;20285;-70
2022/05/31 09:28:16;;;;;;;1197.03;852.70;;;18.90;49.30;;;;;;4981987;28;20556;-70
2022/05/31 09:30:44;;;;;;;1211.27;909.17;;;18.60;49.20;;;;;;5027447;28;20064;-70
2022/05/31 09:33:21;;;;;;;1304.10;926.40;;;18.50;49.60;;;;;;5027337;28;20458;-70
2022/05/31 09:36:06;;;;;;;1220.50;961.53;;;18.40;48.80;;;;;;5033369;28;20304;-70
2022/05/31 09:39:03;;;;;;;1282.78;929.90;;;18.20;46.80;;;;;;5027539;28;20641;-70
2022/05/31 09:41:34;;;;;;;1170.77;864.93;;;18.20;48.50;;;;;;5027003;28;20050;-70
2022/05/31 09:44:09;;;;;;;1283.97;937.27;;;18.40;49.80;;;;;;5027461;28;20350;-70
2022/05/31 09:46:59;;;;;;;1206.73;925.27;;;18.60;50.00;;;;;;5026762;28;20057;-70
2022/05/31 09:49:40;;;;;;;1285.20;934.30;;;18.80;48.90;;;;;;5009549;28;20042;-71
2022/05/31 09:52:24;;;;;;;1283.03;924.20;;;18.90;48.50;;;;;;5010134;28;20299;-70
2022/05/31 09:58:18;;;;;;;1283.63;941.60;;;19.00;46.80;;;;;;5042226;28;20049;-70
2022/05/31 10:01:30;;;;;;;1326.83;944.83;;;18.90;46.00;;;;;;5027083;28;20512;-70
2022/05/31 10:04:09;;;;;;;1279.90;933.60;;;18.70;45.80;;;;;;4991374;28;20128;-70
2022/05/31 10:06:49;;;;;;;1311.70;957.07;;;18.60;47.90;;;;;;5025577;28;20045;-70
2022/05/31 10:09:16;;;;;;;1280.40;964.40;;;18.60;47.50;;;;;;5026767;28;20103;-70
2022/05/31 10:11:45;;;;;;;1280.83;948.83;;;18.60;46.90;;;;;;5010419;28;20038;-70
2022/05/31 10:14:22;;;;;;;1294.87;972.53;;;18.50;46.90;;;;;;5025887;28;20056;-70
2022/05/31 10:16:49;;;;;;;1352.73;977.73;;;18.50;46.40;;;;;;5026583;28;20045;-70
2022/05/31 10:19:28;;;;;;;1239.27;914.53;;;18.50;46.70;;;;;;5004047;28;20049;-70
2022/05/31 10:21:56;;;;;;;1270.90;901.57;;;18.70;47.30;;;;;;5021726;28;20044;-70
2022/05/31 10:24:25;;;;;;;1327.53;964.57;;;18.80;47.30;;;;;;5025117;28;20044;-70
2022/05/31 10:27:11;;;;;;;1292.97;955.30;;;18.90;46.00;;;;;;5026159;28;20077;-70
2022/05/31 10:29:46;;;;;;;1318.47;975.97;;;19.00;46.50;;;;;;5025821;28;20052;-70
2022/05/31 10:32:40;;;;;;;1293.10;945.53;;;19.10;45.90;;;;;;5026320;28;20041;-70
2022/05/31 10:35:20;;;;;;;1300.90;924.80;;;19.20;46.10;;;;;;5025146;28;20045;-70
2022/05/31 10:37:57;;;;;;;1335.97;927.30;;;19.30;45.40;;;;;;5016219;28;20509;-70
2022/05/31 10:40:46;;;;;;;1332.90;988.23;;;19.30;46.00;;;;;;5042505;28;20091;-70
2022/05/31 10:43:20;;;;;;;1315.17;964.67;;;19.30;45.30;;;;;;5019530;28;20049;-70
2022/05/31 10:45:46;;;;;;;1241.40;931.08;;;19.20;44.50;;;;;;5026476;28;20520;-70
2022/05/31 10:48:12;;;;;;;1324.80;967.17;;;19.10;45.50;;;;;;5009182;28;20049;-70
2022/05/31 10:51:00;;;;;;;1307.40;970.83;;;19.00;45.70;;;;;;5025830;28;20502;-70
2022/05/31 10:54:00;;;;;;;1319.07;978.53;;;19.00;44.90;;;;;;5040426;28;20447;-71
2022/05/31 10:56:41;;;;;;;1306.67;962.03;;;18.80;43.00;;;;;;5025430;28;20450;-71
2022/05/31 10:59:24;;;;;;;1295.43;979.93;;;18.70;45.30;;;;;;5026051;28;20041;-70
2022/05/31 11:02:16;;;;;;;1344.10;984.83;;;18.60;46.00;;;;;;5016185;28;20077;-70
2022/05/31 11:05:13;;;;;;;1239.93;904.43;;;18.50;45.60;;;;;;5009115;28;20403;-70
2022/05/31 11:11:28;;;;;;;1244.03;970.83;;;18.30;46.50;;;;;;5042356;28;20139;-70
2022/05/31 11:13:59;;;;;;;1240.53;948.23;;;18.20;46.80;;;;;;5023889;28;20131;-69
2022/05/31 11:16:46;;;;;;;1284.00;932.10;;;18.10;48.20;;;;;;5025404;28;20053;-69
2022/05/31 11:19:41;;;;;;;1249.93;933.93;;;18.20;49.50;;;;;;5003687;28;20049;-70
2022/05/31 11:22:32;;;;;;;1293.40;939.40;;;18.10;47.70;;;;;;5022407;28;20042;-70
2022/05/31 11:25:10;;;;;;;1213.27;921.53;;;18.10;48.00;;;;;;5024766;28;20079;-70
2022/05/31 11:27:48;;;;;;;1291.77;978.17;;;18.00;48.20;;;;;;5014674;28;20542;-70
2022/05/31 11:30:33;;;;;;;1292.47;943.73;;;17.90;48.00;;;;;;5025836;28;20045;-70
2022/05/31 11:33:22;;;;;;;1225.82;923.28;;;17.70;48.30;;;;;;5025036;28;20045;-69
2022/05/31 11:35:58;;;;;;;1240.77;903.97;;;17.60;49.20;;;;;;4994875;28;20172;-69
2022/05/31 11:38:48;;;;;;;1213.57;888.17;;;17.40;50.80;;;;;;5012746;28;20049;-69
2022/05/31 11:41:22;;;;;;;1229.43;895.80;;;17.30;50.30;;;;;;5025533;28;20041;-69
2022/05/31 11:43:57;;;;;;;1214.63;927.00;;;17.20;50.60;;;;;;4996191;28;20042;-69
2022/05/31 11:46:43;;;;;;;1260.57;921.78;;;17.00;49.90;;;;;;5026614;28;20283;-68
2022/05/31 11:49:29;;;;;;;1187.57;904.53;;;17.00;50.40;;;;;;5030292;28;20057;-68
2022/05/31 11:52:09;;;;;;;1177.60;913.80;;;16.90;50.90;;;;;;5025559;28;20295;-69
2022/05/31 11:55:28;;;;;;;1199.33;874.70;;;16.90;50.90;;;;;;5025014;28;20379;-68
2022/05/31 11:58:17;;;;;;;1192.67;906.57;;;16.80;50.40;;;;;;5029396;28;20380;-68
2022/05/31 12:00:49;;;;;;;1139.63;872.77;;;16.70;52.40;;;;;;5029315;28;20280;-68
2022/05/31 12:03:28;;;;;;;1150.40;864.93;;;16.70;52.80;;;;;;5017376;28;20653;-69
2022/05/31 12:06:03;;;;;;;1156.27;859.80;;;16.80;52.40;;;;;;5029213;28;20280;-69
2022/05/31 12:08:43;;;;;;;1174.38;924.30;;;16.80;52.20;;;;;;5029248;28;20291;-69
2022/05/31 12:11:15;;;;;;;1210.53;944.10;;;16.90;51.10;;;;;;5029228;28;20041;-69
2022/05/31 12:13:44;;;;;;;1176.53;896.90;;;17.10;50.90;;;;;;5011587;28;20299;-69
2022/05/31 12:16:11;;;;;;;1164.80;913.80;;;17.20;50.50;;;;;;5029420;28;20304;-69
2022/05/31 12:19:03;;;;;;;1184.83;918.33;;;17.40;49.80;;;;;;5028589;28;20300;-69
2022/05/31 12:21:41;;;;;;;1236.10;937.73;;;17.60;49.80;;;;;;5021166;28;20333;-69
2022/05/31 12:24:06;;;;;;;1200.63;889.70;;;17.80;49.80;;;;;;5028115;28;20805;-68
2022/05/31 12:26:56;;;;;;;1249.00;916.40;;;17.90;49.20;;;;;;5044006;28;20284;-69
2022/05/31 12:29:34;;;;;;;1222.57;913.60;;;18.00;49.10;;;;;;4993176;28;20486;-69
2022/05/31 12:32:29;;;;;;;1147.30;860.03;;;18.10;49.40;;;;;;5004997;28;20306;-69
2022/05/31 12:34:56;;;;;;;;;;;18.20;49.70;;;;;;5039453;28;20292;-69
2022/05/31 12:37:22;;;;;;;1174.40;914.13;;;18.20;49.80;;;;;;4994672;28;19922;-69
2022/05/31 12:39:50;;;;;;;1140.73;882.83;;;18.30;50.00;;;;;;5007907;28;21009;-69
2022/05/31 12:42:25;;;;;;;1209.77;883.67;;;18.30;50.10;;;;;;5011872;28;20295;-69
2022/05/31 12:45:08;;;;;;;1259.13;932.45;;;18.40;49.10;;;;;;5027040;28;20288;-69
2022/05/31 12:47:34;;;;;;;1258.43;925.07;;;18.50;48.80;;;;;;5011647;28;20049;-68
2022/05/31 12:50:06;;;;;;;1182.67;898.37;;;18.40;48.90;;;;;;5028041;28;20303;-69
2022/05/31 12:55:36;;;;;;;1267.20;955.07;;;18.10;50.20;;;;;;5036349;28;20324;-69